createdAt,value
2018-08-12T00:00:07.849Z,932.08
2018-08-12T00:01:07.882Z,932.08
2018-08-12T00:02:07.895Z,932.06
2018-08-12T00:03:07.969Z,932.08
2018-08-12T00:04:08.006Z,932.11
2018-08-12T00:05:08.027Z,932.11
2018-08-12T00:06:08.136Z,932.18
2018-08-12T00:07:08.126Z,932.17
2018-08-12T00:08:08.203Z,932.19
2018-08-12T00:09:08.221Z,932.21
2018-08-12T00:10:08.219Z,932.23
2018-08-12T00:11:08.415Z,932.22
2018-08-12T00:12:08.313Z,932.26
2018-08-12T00:13:08.332Z,932.25
2018-08-12T00:14:08.419Z,932.24
2018-08-12T00:15:08.464Z,932.24
2018-08-12T00:16:08.451Z,932.28
2018-08-12T00:17:08.500Z,932.27
2018-08-12T00:18:08.574Z,932.25
2018-08-12T00:19:08.595Z,932.24
2018-08-12T00:20:08.631Z,932.24
2018-08-12T00:21:08.680Z,932.32
2018-08-12T00:22:08.711Z,932.27
2018-08-12T00:23:08.883Z,932.29
2018-08-12T00:24:08.826Z,932.32
2018-08-12T00:25:08.836Z,932.36
2018-08-12T00:26:08.888Z,932.34
2018-08-12T00:27:08.898Z,932.38
2018-08-12T00:28:08.947Z,932.38
2018-08-12T00:29:09.173Z,932.38
2018-08-12T00:30:09.023Z,932.44
2018-08-12T00:31:09.101Z,932.42
2018-08-12T00:32:09.119Z,932.41
2018-08-12T00:33:09.165Z,932.44
2018-08-12T00:34:09.198Z,932.43
2018-08-12T00:35:09.243Z,932.46
2018-08-12T00:36:09.260Z,932.42
2018-08-12T00:37:09.315Z,932.44
2018-08-12T00:38:09.377Z,932.46
2018-08-12T00:39:09.589Z,932.47
2018-08-12T00:40:09.437Z,932.48
2018-08-12T00:41:09.505Z,932.51
2018-08-12T00:42:09.532Z,932.47
2018-08-12T00:43:09.549Z,932.46
2018-08-12T00:44:09.602Z,932.44
2018-08-12T00:45:09.661Z,932.44
2018-08-12T00:46:09.683Z,932.45
2018-08-12T00:47:09.701Z,932.43
2018-08-12T00:48:09.789Z,932.42
2018-08-12T00:49:09.792Z,932.42
2018-08-12T00:50:09.845Z,932.37
2018-08-12T00:51:09.874Z,932.38
2018-08-12T00:52:09.908Z,932.36
2018-08-12T00:53:09.945Z,932.37
2018-08-12T00:54:10.145Z,932.40
2018-08-12T00:55:10.045Z,932.40
2018-08-12T00:56:10.063Z,932.43
2018-08-12T00:57:10.126Z,932.46
2018-08-12T00:58:10.173Z,932.50
2018-08-12T00:59:10.166Z,932.49
2018-08-12T01:00:10.466Z,932.44
2018-08-12T01:01:10.264Z,932.42
2018-08-12T01:02:10.330Z,932.45
2018-08-12T01:03:10.390Z,932.47
2018-08-12T01:04:10.386Z,932.46
2018-08-12T01:05:10.415Z,932.49
2018-08-12T01:06:10.694Z,932.51
2018-08-12T01:07:10.506Z,932.52
2018-08-12T01:08:10.567Z,932.51
2018-08-12T01:09:10.644Z,932.52
2018-08-12T01:10:10.636Z,932.52
2018-08-12T01:11:10.647Z,932.51
2018-08-12T01:12:10.730Z,932.54
2018-08-12T01:13:10.756Z,932.56
2018-08-12T01:14:10.799Z,932.55
2018-08-12T01:15:10.834Z,932.56
2018-08-12T01:16:10.877Z,932.55
2018-08-12T01:17:11.118Z,932.58
2018-08-12T01:18:11.000Z,932.56
2018-08-12T01:19:10.998Z,932.62
2018-08-12T01:20:11.041Z,932.59
2018-08-12T01:21:11.105Z,932.60
2018-08-12T01:22:11.136Z,932.61
2018-08-12T01:23:11.146Z,932.61
2018-08-12T01:24:11.338Z,932.57
2018-08-12T01:25:11.241Z,932.62
2018-08-12T01:26:11.251Z,932.60
2018-08-12T01:27:11.319Z,932.60
2018-08-12T01:28:11.337Z,932.57
2018-08-12T01:29:11.408Z,932.60
2018-08-12T01:30:11.424Z,932.62
2018-08-12T01:31:11.464Z,932.57
2018-08-12T01:32:11.524Z,932.60
2018-08-12T01:33:11.549Z,932.57
2018-08-12T01:34:11.600Z,932.60
2018-08-12T01:35:11.771Z,932.62
2018-08-12T01:36:11.690Z,932.61
2018-08-12T01:37:11.737Z,932.58
2018-08-12T01:38:11.801Z,932.62
2018-08-12T01:39:11.810Z,932.59
2018-08-12T01:40:11.822Z,932.59
2018-08-12T01:41:11.900Z,932.57
2018-08-12T01:42:11.891Z,932.61
2018-08-12T01:43:11.973Z,932.61
2018-08-12T01:44:11.988Z,932.62
2018-08-12T01:45:12.003Z,932.61
2018-08-12T01:46:12.068Z,932.63
2018-08-12T01:47:12.089Z,932.63
2018-08-12T01:48:12.148Z,932.59
2018-08-12T01:49:12.199Z,932.66
2018-08-12T01:50:12.211Z,932.66
2018-08-12T01:51:12.464Z,932.68
2018-08-12T01:52:12.298Z,932.64
2018-08-12T01:53:12.333Z,932.62
2018-08-12T01:54:12.394Z,932.66
2018-08-12T01:55:12.432Z,932.69
2018-08-12T01:56:12.457Z,932.66
2018-08-12T01:57:12.548Z,932.71
2018-08-12T01:58:12.748Z,932.72
2018-08-12T01:59:12.593Z,932.73
2018-08-12T02:00:12.618Z,932.70
2018-08-12T02:01:12.645Z,932.73
2018-08-12T02:02:12.715Z,932.68
2018-08-12T02:03:12.742Z,932.68
2018-08-12T02:04:12.780Z,932.67
2018-08-12T02:05:12.805Z,932.67
2018-08-12T02:06:12.873Z,932.68
2018-08-12T02:07:12.927Z,932.74
2018-08-12T02:08:13.097Z,932.69
2018-08-12T02:09:13.011Z,932.69
2018-08-12T02:10:13.000Z,932.69
2018-08-12T02:11:13.055Z,932.66
2018-08-12T02:12:13.094Z,932.69
2018-08-12T02:13:13.129Z,932.72
2018-08-12T02:14:13.432Z,932.70
2018-08-12T02:15:13.222Z,932.71
2018-08-12T02:16:13.283Z,932.71
2018-08-12T02:17:13.286Z,932.69
2018-08-12T02:18:13.325Z,932.69
2018-08-12T02:19:13.405Z,932.67
2018-08-12T02:20:13.615Z,932.67
2018-08-12T02:21:13.421Z,932.64
2018-08-12T02:22:13.499Z,932.62
2018-08-12T02:23:13.521Z,932.63
2018-08-12T02:24:13.578Z,932.63
2018-08-12T02:25:13.601Z,932.63
2018-08-12T02:26:13.632Z,932.60
2018-08-12T02:27:13.674Z,932.59
2018-08-12T02:28:13.736Z,932.63
2018-08-12T02:29:13.787Z,932.61
2018-08-12T02:30:13.808Z,932.58
2018-08-12T02:31:13.981Z,932.65
2018-08-12T02:32:13.887Z,932.59
2018-08-12T02:33:13.966Z,932.64
2018-08-12T02:34:13.971Z,932.63
2018-08-12T02:35:14.073Z,932.65
2018-08-12T02:36:14.050Z,932.66
2018-08-12T02:37:14.091Z,932.63
2018-08-12T02:38:14.281Z,932.63
2018-08-12T02:39:14.153Z,932.58
2018-08-12T02:40:14.211Z,932.61
2018-08-12T02:41:14.234Z,932.56
2018-08-12T02:42:14.245Z,932.58
2018-08-12T02:43:14.307Z,932.54
2018-08-12T02:44:14.522Z,932.56
2018-08-12T02:45:14.410Z,932.58
2018-08-12T02:46:14.403Z,932.55
2018-08-12T02:47:14.477Z,932.54
2018-08-12T02:48:14.514Z,932.52
2018-08-12T02:49:14.542Z,932.52
2018-08-12T02:50:14.610Z,932.56
2018-08-12T02:51:14.644Z,932.52
2018-08-12T02:52:14.681Z,932.50
2018-08-12T02:53:14.720Z,932.52
2018-08-12T02:54:14.787Z,932.51
2018-08-12T02:55:14.792Z,932.52
2018-08-12T02:56:14.835Z,932.47
2018-08-12T02:57:14.885Z,932.49
2018-08-12T02:58:14.954Z,932.49
2018-08-12T02:59:14.933Z,932.41
2018-08-12T03:00:15.007Z,932.43
2018-08-12T03:01:15.028Z,932.40
2018-08-12T03:02:15.107Z,932.39
2018-08-12T03:03:15.105Z,932.38
2018-08-12T03:04:15.149Z,932.36
2018-08-12T03:05:15.219Z,932.38
2018-08-12T03:06:15.234Z,932.39
2018-08-12T03:07:15.297Z,932.39
2018-08-12T03:08:15.358Z,932.38
2018-08-12T03:09:15.337Z,932.40
2018-08-12T03:10:15.390Z,932.42
2018-08-12T03:11:15.400Z,932.39
2018-08-12T03:12:15.478Z,932.36
2018-08-12T03:13:15.484Z,932.38
2018-08-12T03:14:15.530Z,932.37
2018-08-12T03:15:15.572Z,932.39
2018-08-12T03:16:15.593Z,932.41
2018-08-12T03:17:15.655Z,932.37
2018-08-12T03:18:15.883Z,932.38
2018-08-12T03:19:15.761Z,932.39
2018-08-12T03:20:15.815Z,932.37
2018-08-12T03:21:15.801Z,932.37
2018-08-12T03:22:15.904Z,932.34
2018-08-12T03:23:15.891Z,932.33
2018-08-12T03:24:16.077Z,932.29
2018-08-12T03:25:15.988Z,932.33
2018-08-12T03:26:16.047Z,932.35
2018-08-12T03:27:16.052Z,932.28
2018-08-12T03:28:16.102Z,932.30
2018-08-12T03:29:16.147Z,932.28
2018-08-12T03:30:16.281Z,932.28
2018-08-12T03:31:16.218Z,932.21
2018-08-12T03:32:16.244Z,932.23
2018-08-12T03:33:16.293Z,932.27
2018-08-12T03:34:16.527Z,932.25
2018-08-12T03:35:16.554Z,932.19
2018-08-12T03:36:16.381Z,932.20
2018-08-12T03:37:16.434Z,932.20
2018-08-12T03:38:16.482Z,932.18
2018-08-12T03:39:16.514Z,932.14
2018-08-12T03:40:16.575Z,932.13
2018-08-12T03:41:16.799Z,932.14
2018-08-12T03:42:16.679Z,932.13
2018-08-12T03:43:16.718Z,932.16
2018-08-12T03:44:16.724Z,932.12
2018-08-12T03:45:16.740Z,932.17
2018-08-12T03:46:16.803Z,932.21
2018-08-12T03:47:17.042Z,932.18
2018-08-12T03:48:16.878Z,932.17
2018-08-12T03:49:16.973Z,932.17
2018-08-12T03:50:16.960Z,932.23
2018-08-12T03:51:17.043Z,932.19
2018-08-12T03:52:17.047Z,932.21
2018-08-12T03:53:17.142Z,932.20
2018-08-12T03:54:17.097Z,932.21
2018-08-12T03:55:17.168Z,932.19
2018-08-12T03:56:17.205Z,932.22
2018-08-12T03:57:17.383Z,932.21
2018-08-12T03:58:17.269Z,932.15
2018-08-12T03:59:17.318Z,932.12
2018-08-12T04:00:17.376Z,932.12
2018-08-12T04:01:17.393Z,932.14
2018-08-12T04:02:17.434Z,932.12
2018-08-12T04:03:17.487Z,932.10
2018-08-12T04:04:17.507Z,932.08
2018-08-12T04:05:17.602Z,932.07
2018-08-12T04:06:17.651Z,932.09
2018-08-12T04:07:17.619Z,932.02
2018-08-12T04:08:17.692Z,932.04
2018-08-12T04:09:17.775Z,932.08
2018-08-12T04:10:17.734Z,932.11
2018-08-12T04:11:17.803Z,932.04
2018-08-12T04:12:17.820Z,932.03
2018-08-12T04:13:18.112Z,932.06
2018-08-12T04:14:17.873Z,932.07
2018-08-12T04:15:17.961Z,932.04
2018-08-12T04:16:17.979Z,932.05
2018-08-12T04:17:18.020Z,932.00
2018-08-12T04:18:18.061Z,931.95
2018-08-12T04:19:18.121Z,932.05
2018-08-12T04:20:18.351Z,932.01
2018-08-12T04:21:18.199Z,932.04
2018-08-12T04:22:18.236Z,932.02
2018-08-12T04:23:18.264Z,931.99
2018-08-12T04:24:18.309Z,931.98
2018-08-12T04:25:18.388Z,932.05
2018-08-12T04:26:18.576Z,931.98
2018-08-12T04:27:18.428Z,931.93
2018-08-12T04:28:18.452Z,931.97
2018-08-12T04:29:18.486Z,931.93
2018-08-12T04:30:18.556Z,931.94
2018-08-12T04:31:18.578Z,931.87
2018-08-12T04:32:18.821Z,931.82
2018-08-12T04:33:18.643Z,931.83
2018-08-12T04:34:18.678Z,931.83
2018-08-12T04:35:18.743Z,931.82
2018-08-12T04:36:18.766Z,931.84
2018-08-12T04:37:18.828Z,931.81
2018-08-12T04:38:19.042Z,931.82
2018-08-12T04:39:18.882Z,931.75
2018-08-12T04:40:18.924Z,931.76
2018-08-12T04:41:18.967Z,931.72
2018-08-12T04:42:19.043Z,931.71
2018-08-12T04:43:19.245Z,931.72
2018-08-12T04:44:19.092Z,931.73
2018-08-12T04:45:19.180Z,931.69
2018-08-12T04:46:19.163Z,931.67
2018-08-12T04:47:19.212Z,931.66
2018-08-12T04:48:19.248Z,931.66
2018-08-12T04:49:19.282Z,931.65
2018-08-12T04:50:19.477Z,931.64
2018-08-12T04:51:19.409Z,931.64
2018-08-12T04:52:19.391Z,931.62
2018-08-12T04:53:19.472Z,931.62
2018-08-12T04:54:19.499Z,931.63
2018-08-12T04:55:19.534Z,931.63
2018-08-12T04:56:19.745Z,931.59
2018-08-12T04:57:19.620Z,931.58
2018-08-12T04:58:19.690Z,931.61
2018-08-12T04:59:19.676Z,931.60
2018-08-12T05:00:19.723Z,931.59
2018-08-12T05:01:19.769Z,931.63
2018-08-12T05:02:20.064Z,931.61
2018-08-12T05:03:19.844Z,931.60
2018-08-12T05:04:19.876Z,931.60
2018-08-12T05:05:19.905Z,931.56
2018-08-12T05:06:19.970Z,931.61
2018-08-12T05:07:20.155Z,931.59
2018-08-12T05:08:20.032Z,931.62
2018-08-12T05:09:20.085Z,931.60
2018-08-12T05:10:20.118Z,931.56
2018-08-12T05:11:20.206Z,931.62
2018-08-12T05:12:20.192Z,931.59
2018-08-12T05:13:20.215Z,931.58
2018-08-12T05:14:20.281Z,931.61
2018-08-12T05:15:20.340Z,931.60
2018-08-12T05:16:20.358Z,931.60
2018-08-12T05:17:20.404Z,931.59
2018-08-12T05:18:20.689Z,931.61
2018-08-12T05:19:20.466Z,931.59
2018-08-12T05:20:20.523Z,931.58
2018-08-12T05:21:20.570Z,931.56
2018-08-12T05:22:20.611Z,931.55
2018-08-12T05:23:20.618Z,931.58
2018-08-12T05:24:20.645Z,931.51
2018-08-12T05:25:20.705Z,931.53
2018-08-12T05:26:20.767Z,931.50
2018-08-12T05:27:20.780Z,931.54
2018-08-12T05:28:21.003Z,931.50
2018-08-12T05:29:20.902Z,931.49
2018-08-12T05:30:20.926Z,931.46
2018-08-12T05:31:20.954Z,931.44
2018-08-12T05:32:20.981Z,931.47
2018-08-12T05:33:21.043Z,931.44
2018-08-12T05:34:21.278Z,931.44
2018-08-12T05:35:21.116Z,931.44
2018-08-12T05:36:21.167Z,931.40
2018-08-12T05:37:21.209Z,931.40
2018-08-12T05:38:21.255Z,931.46
2018-08-12T05:39:21.258Z,931.43
2018-08-12T05:40:21.287Z,931.39
2018-08-12T05:41:21.348Z,931.36
2018-08-12T05:42:21.410Z,931.38
2018-08-12T05:43:21.446Z,931.34
2018-08-12T05:44:21.600Z,931.34
2018-08-12T05:45:21.494Z,931.38
2018-08-12T05:46:21.552Z,931.37
2018-08-12T05:47:21.596Z,931.35
2018-08-12T05:48:21.593Z,931.33
2018-08-12T05:49:21.662Z,931.33
2018-08-12T05:50:21.712Z,931.37
2018-08-12T05:51:21.752Z,931.34
2018-08-12T05:52:21.791Z,931.36
2018-08-12T05:53:21.804Z,931.35
2018-08-12T05:54:21.860Z,931.36
2018-08-12T05:55:22.089Z,931.33
2018-08-12T05:56:21.930Z,931.32
2018-08-12T05:57:21.991Z,931.32
2018-08-12T05:58:22.028Z,931.26
2018-08-12T05:59:22.068Z,931.25
2018-08-12T06:00:22.107Z,931.29
2018-08-12T06:01:22.325Z,931.32
2018-08-12T06:02:22.194Z,931.30
2018-08-12T06:03:22.190Z,931.29
2018-08-12T06:04:22.267Z,931.29
2018-08-12T06:05:22.286Z,931.27
2018-08-12T06:06:22.461Z,931.29
2018-08-12T06:07:22.390Z,931.36
2018-08-12T06:08:22.433Z,931.34
2018-08-12T06:09:22.469Z,931.36
2018-08-12T06:10:22.466Z,931.34
2018-08-12T06:11:22.520Z,931.32
2018-08-12T06:12:22.734Z,931.39
2018-08-12T06:13:22.624Z,931.43
2018-08-12T06:14:22.636Z,931.38
2018-08-12T06:15:22.705Z,931.37
2018-08-12T06:16:22.721Z,931.35
2018-08-12T06:17:22.856Z,931.36
2018-08-12T06:18:22.987Z,931.37
2018-08-12T06:19:22.814Z,931.32
2018-08-12T06:20:22.874Z,931.37
2018-08-12T06:21:22.914Z,931.32
2018-08-12T06:22:22.947Z,931.36
2018-08-12T06:23:22.965Z,931.33
2018-08-12T06:24:23.039Z,931.32
2018-08-12T06:25:23.118Z,931.35
2018-08-12T06:26:23.134Z,931.35
2018-08-12T06:27:23.148Z,931.33
2018-08-12T06:28:23.183Z,931.35
2018-08-12T06:29:23.403Z,931.34
2018-08-12T06:30:23.259Z,931.33
2018-08-12T06:31:23.319Z,931.35
2018-08-12T06:32:23.322Z,931.32
2018-08-12T06:33:23.404Z,931.29
2018-08-12T06:34:23.511Z,931.32
2018-08-12T06:35:23.629Z,931.28
2018-08-12T06:36:23.526Z,931.27
2018-08-12T06:37:23.535Z,931.27
2018-08-12T06:38:23.619Z,931.25
2018-08-12T06:39:23.610Z,931.24
2018-08-12T06:40:23.631Z,931.23
2018-08-12T06:41:23.886Z,931.24
2018-08-12T06:42:23.768Z,931.26
2018-08-12T06:43:23.773Z,931.24
2018-08-12T06:44:23.809Z,931.24
2018-08-12T06:45:23.865Z,931.20
2018-08-12T06:46:23.889Z,931.24
2018-08-12T06:47:24.105Z,931.25
2018-08-12T06:48:23.987Z,931.20
2018-08-12T06:49:24.006Z,931.21
2018-08-12T06:50:24.044Z,931.18
2018-08-12T06:51:24.079Z,931.22
2018-08-12T06:52:24.109Z,931.20
2018-08-12T06:53:24.167Z,931.20
2018-08-12T06:54:24.234Z,931.21
2018-08-12T06:55:24.249Z,931.25
2018-08-12T06:56:24.271Z,931.19
2018-08-12T06:57:24.309Z,931.22
2018-08-12T06:58:24.351Z,931.20
2018-08-12T06:59:24.411Z,931.23
2018-08-12T07:00:24.479Z,931.20
2018-08-12T07:01:24.488Z,931.19
2018-08-12T07:02:24.556Z,931.20
2018-08-12T07:03:24.690Z,931.20
2018-08-12T07:04:24.611Z,931.23
2018-08-12T07:05:24.630Z,931.19
2018-08-12T07:06:24.691Z,931.22
2018-08-12T07:07:24.724Z,931.22
2018-08-12T07:08:24.767Z,931.22
2018-08-12T07:09:25.012Z,931.30
2018-08-12T07:10:24.853Z,931.26
2018-08-12T07:11:24.894Z,931.25
2018-08-12T07:12:24.889Z,931.27
2018-08-12T07:13:24.947Z,931.26
2018-08-12T07:14:25.033Z,931.29
2018-08-12T07:15:25.194Z,931.28
2018-08-12T07:16:25.081Z,931.25
2018-08-12T07:17:25.126Z,931.27
2018-08-12T07:18:25.122Z,931.32
2018-08-12T07:19:25.201Z,931.33
2018-08-12T07:20:25.227Z,931.30
2018-08-12T07:21:25.262Z,931.29
2018-08-12T07:22:25.308Z,931.30
2018-08-12T07:23:25.334Z,931.30
2018-08-12T07:24:25.360Z,931.32
2018-08-12T07:25:25.422Z,931.30
2018-08-12T07:26:25.506Z,931.35
2018-08-12T07:27:25.627Z,931.35
2018-08-12T07:28:25.744Z,931.34
2018-08-12T07:29:25.596Z,931.36
2018-08-12T07:30:25.662Z,931.39
2018-08-12T07:31:25.673Z,931.36
2018-08-12T07:32:25.662Z,931.35
2018-08-12T07:33:25.743Z,931.36
2018-08-12T07:34:25.983Z,931.33
2018-08-12T07:35:25.813Z,931.38
2018-08-12T07:36:25.831Z,931.36
2018-08-12T07:37:25.884Z,931.35
2018-08-12T07:38:25.894Z,931.39
2018-08-12T07:39:25.975Z,931.34
2018-08-12T07:40:26.033Z,931.37
2018-08-12T07:41:26.034Z,931.36
2018-08-12T07:42:26.079Z,931.36
2018-08-12T07:43:26.132Z,931.34
2018-08-12T07:44:26.184Z,931.35
2018-08-12T07:45:26.389Z,931.40
2018-08-12T07:46:26.232Z,931.33
2018-08-12T07:47:26.280Z,931.36
2018-08-12T07:48:26.319Z,931.39
2018-08-12T07:49:26.375Z,931.37
2018-08-12T07:50:26.603Z,931.41
2018-08-12T07:51:26.414Z,931.40
2018-08-12T07:52:26.454Z,931.37
2018-08-12T07:53:26.555Z,931.40
2018-08-12T07:54:26.526Z,931.40
2018-08-12T07:55:26.613Z,931.39
2018-08-12T07:56:26.833Z,931.41
2018-08-12T07:57:26.681Z,931.44
2018-08-12T07:58:26.703Z,931.44
2018-08-12T07:59:26.735Z,931.51
2018-08-12T08:00:26.811Z,931.50
2018-08-12T08:01:27.127Z,931.53
2018-08-12T08:02:26.873Z,931.50
2018-08-12T08:03:26.910Z,931.49
2018-08-12T08:04:26.944Z,931.50
2018-08-12T08:05:26.962Z,931.53
2018-08-12T08:06:27.012Z,931.48
2018-08-12T08:07:27.242Z,931.52
2018-08-12T08:08:27.085Z,931.52
2018-08-12T08:09:27.132Z,931.54
2018-08-12T08:10:27.177Z,931.50
2018-08-12T08:11:27.203Z,931.52
2018-08-12T08:12:27.286Z,931.53
2018-08-12T08:13:27.505Z,931.54
2018-08-12T08:14:27.313Z,931.53
2018-08-12T08:15:27.347Z,931.55
2018-08-12T08:16:27.411Z,931.53
2018-08-12T08:17:27.454Z,931.58
2018-08-12T08:18:27.513Z,931.58
2018-08-12T08:19:27.666Z,931.55
2018-08-12T08:20:27.567Z,931.55
2018-08-12T08:21:27.610Z,931.59
2018-08-12T08:22:27.614Z,931.60
2018-08-12T08:23:27.675Z,931.60
2018-08-12T08:24:27.720Z,931.57
2018-08-12T08:25:27.853Z,931.61
2018-08-12T08:26:27.780Z,931.63
2018-08-12T08:27:27.830Z,931.59
2018-08-12T08:28:27.860Z,931.60
2018-08-12T08:29:27.904Z,931.61
2018-08-12T08:30:28.109Z,931.64
2018-08-12T08:31:28.050Z,931.63
2018-08-12T08:32:27.995Z,931.61
2018-08-12T08:33:28.040Z,931.65
2018-08-12T08:34:28.134Z,931.63
2018-08-12T08:35:28.153Z,931.65
2018-08-12T08:36:28.171Z,931.64
2018-08-12T08:37:28.419Z,931.67
2018-08-12T08:38:28.271Z,931.70
2018-08-12T08:39:28.319Z,931.71
2018-08-12T08:40:28.352Z,931.71
2018-08-12T08:41:28.379Z,931.76
2018-08-12T08:42:28.413Z,931.72
2018-08-12T08:43:28.482Z,931.77
2018-08-12T08:44:28.498Z,931.74
2018-08-12T08:45:28.502Z,931.75
2018-08-12T08:46:28.558Z,931.77
2018-08-12T08:47:28.809Z,931.82
2018-08-12T08:48:28.851Z,931.78
2018-08-12T08:49:28.707Z,931.81
2018-08-12T08:50:28.720Z,931.83
2018-08-12T08:51:28.764Z,931.81
2018-08-12T08:52:28.803Z,931.85
2018-08-12T08:53:28.867Z,931.85
2018-08-12T08:54:28.863Z,931.90
2018-08-12T08:55:28.923Z,931.90
2018-08-12T08:56:28.985Z,931.93
2018-08-12T08:57:29.030Z,931.91
2018-08-12T08:58:29.242Z,931.94
2018-08-12T08:59:29.094Z,931.97
2018-08-12T09:00:29.173Z,931.94
2018-08-12T09:01:29.229Z,931.95
2018-08-12T09:02:29.190Z,931.91
2018-08-12T09:03:29.434Z,931.97
2018-08-12T09:04:29.267Z,931.97
2018-08-12T09:05:29.339Z,932.00
2018-08-12T09:06:29.397Z,931.99
2018-08-12T09:07:29.421Z,932.07
2018-08-12T09:08:29.665Z,932.07
2018-08-12T09:09:29.453Z,932.09
2018-08-12T09:10:29.525Z,932.12
2018-08-12T09:11:29.557Z,932.13
2018-08-12T09:12:29.608Z,932.17
2018-08-12T09:13:29.628Z,932.17
2018-08-12T09:14:29.809Z,932.17
2018-08-12T09:15:29.698Z,932.23
2018-08-12T09:16:29.728Z,932.22
2018-08-12T09:17:29.777Z,932.22
2018-08-12T09:18:29.805Z,932.23
2018-08-12T09:19:30.051Z,932.24
2018-08-12T09:20:29.915Z,932.24
2018-08-12T09:21:29.949Z,932.26
2018-08-12T09:22:29.977Z,932.27
2018-08-12T09:23:30.022Z,932.25
2018-08-12T09:24:30.074Z,932.29
2018-08-12T09:25:30.268Z,932.32
2018-08-12T09:26:30.143Z,932.32
2018-08-12T09:27:30.215Z,932.35
2018-08-12T09:28:30.257Z,932.36
2018-08-12T09:29:30.266Z,932.36
2018-08-12T09:30:30.505Z,932.37
2018-08-12T09:31:30.324Z,932.39
2018-08-12T09:32:30.353Z,932.40
2018-08-12T09:33:30.391Z,932.44
2018-08-12T09:34:30.443Z,932.43
2018-08-12T09:35:30.463Z,932.47
2018-08-12T09:36:30.533Z,932.44
2018-08-12T09:37:30.576Z,932.48
2018-08-12T09:38:30.613Z,932.45
2018-08-12T09:39:30.681Z,932.48
2018-08-12T09:40:30.896Z,932.52
2018-08-12T09:41:30.759Z,932.51
2018-08-12T09:42:30.741Z,932.49
2018-08-12T09:43:30.804Z,932.53
2018-08-12T09:44:30.862Z,932.50
2018-08-12T09:45:30.889Z,932.52
2018-08-12T09:46:30.940Z,932.51
2018-08-12T09:47:31.022Z,932.54
2018-08-12T09:48:31.012Z,932.54
2018-08-12T09:49:31.037Z,932.53
2018-08-12T09:50:31.232Z,932.53
2018-08-12T09:51:31.230Z,932.51
2018-08-12T09:52:31.145Z,932.52
2018-08-12T09:53:31.230Z,932.52
2018-08-12T09:54:31.251Z,932.52
2018-08-12T09:55:31.289Z,932.60
2018-08-12T09:56:31.354Z,932.58
2018-08-12T09:57:31.365Z,932.58
2018-08-12T09:58:31.555Z,932.53
2018-08-12T09:59:31.448Z,932.58
2018-08-12T10:00:31.673Z,932.53
2018-08-12T10:01:31.522Z,932.53
2018-08-12T10:02:31.577Z,932.52
2018-08-12T10:03:31.616Z,932.53
2018-08-12T10:04:31.618Z,932.60
2018-08-12T10:05:31.883Z,932.57
2018-08-12T10:06:31.696Z,932.53
2018-08-12T10:07:31.891Z,932.63
2018-08-12T10:08:31.797Z,932.58
2018-08-12T10:09:31.838Z,932.62
2018-08-12T10:10:31.953Z,932.62
2018-08-12T10:11:32.145Z,932.59
2018-08-12T10:12:31.975Z,932.53
2018-08-12T10:13:31.995Z,932.57
2018-08-12T10:14:32.054Z,932.58
2018-08-12T10:15:32.117Z,932.61
2018-08-12T10:16:32.112Z,932.57
2018-08-12T10:17:32.178Z,932.62
2018-08-12T10:18:32.190Z,932.62
2018-08-12T10:19:32.265Z,932.64
2018-08-12T10:20:32.284Z,932.63
2018-08-12T10:21:32.581Z,932.66
2018-08-12T10:22:32.371Z,932.66
2018-08-12T10:23:32.387Z,932.62
2018-08-12T10:24:32.447Z,932.64
2018-08-12T10:25:32.463Z,932.66
2018-08-12T10:26:32.505Z,932.65
2018-08-12T10:27:32.551Z,932.67
2018-08-12T10:28:32.654Z,932.70
2018-08-12T10:29:32.677Z,932.71
2018-08-12T10:30:32.737Z,932.71
2018-08-12T10:31:32.715Z,932.69
2018-08-12T10:32:32.930Z,932.83
2018-08-12T10:33:32.838Z,932.72
2018-08-12T10:34:32.843Z,932.73
2018-08-12T10:35:32.880Z,932.76
2018-08-12T10:36:32.944Z,932.79
2018-08-12T10:37:32.986Z,932.80
2018-08-12T10:38:33.032Z,932.82
2018-08-12T10:39:33.079Z,932.78
2018-08-12T10:40:33.124Z,932.83
2018-08-12T10:41:33.175Z,932.85
2018-08-12T10:42:33.357Z,932.83
2018-08-12T10:43:33.185Z,932.84
2018-08-12T10:44:33.249Z,932.87
2018-08-12T10:45:33.318Z,932.84
2018-08-12T10:46:33.394Z,932.84
2018-08-12T10:47:33.373Z,932.87
2018-08-12T10:48:33.616Z,932.90
2018-08-12T10:49:33.483Z,932.90
2018-08-12T10:50:33.502Z,932.93
2018-08-12T10:51:33.551Z,932.94
2018-08-12T10:52:33.573Z,932.93
2018-08-12T10:53:33.639Z,932.95
2018-08-12T10:54:33.827Z,932.95
2018-08-12T10:55:33.741Z,932.94
2018-08-12T10:56:33.738Z,932.97
2018-08-12T10:57:33.776Z,932.93
2018-08-12T10:58:33.869Z,932.98
2018-08-12T10:59:33.867Z,933.00
2018-08-12T11:00:33.912Z,932.99
2018-08-12T11:01:33.945Z,933.02
2018-08-12T11:02:34.005Z,933.05
2018-08-12T11:03:34.032Z,933.08
2018-08-12T11:04:34.283Z,933.13
2018-08-12T11:05:34.130Z,933.09
2018-08-12T11:06:34.152Z,933.13
2018-08-12T11:07:34.281Z,933.13
2018-08-12T11:08:34.215Z,933.13
2018-08-12T11:09:34.275Z,933.16
2018-08-12T11:10:34.338Z,933.14
2018-08-12T11:11:34.345Z,933.18
2018-08-12T11:12:34.414Z,933.18
2018-08-12T11:13:34.420Z,933.21
2018-08-12T11:14:34.700Z,933.20
2018-08-12T11:15:34.547Z,933.23
2018-08-12T11:16:34.565Z,933.24
2018-08-12T11:17:34.640Z,933.22
2018-08-12T11:18:34.654Z,933.25
2018-08-12T11:19:34.707Z,933.26
2018-08-12T11:20:34.996Z,933.31
2018-08-12T11:21:34.777Z,933.25
2018-08-12T11:22:34.810Z,933.36
2018-08-12T11:23:34.857Z,933.30
2018-08-12T11:24:34.942Z,933.27
2018-08-12T11:25:34.944Z,933.32
2018-08-12T11:26:35.116Z,933.35
2018-08-12T11:27:35.039Z,933.35
2018-08-12T11:28:35.099Z,933.43
2018-08-12T11:29:35.107Z,933.43
2018-08-12T11:30:35.171Z,933.43
2018-08-12T11:31:35.400Z,933.40
2018-08-12T11:32:35.208Z,933.50
2018-08-12T11:33:35.255Z,933.43
2018-08-12T11:34:35.328Z,933.44
2018-08-12T11:35:35.355Z,933.48
2018-08-12T11:36:35.394Z,933.51
2018-08-12T11:37:35.611Z,933.51
2018-08-12T11:38:35.662Z,933.55
2018-08-12T11:39:35.496Z,933.53
2018-08-12T11:40:35.531Z,933.49
2018-08-12T11:41:35.586Z,933.54
2018-08-12T11:42:35.632Z,933.53
2018-08-12T11:43:35.867Z,933.59
2018-08-12T11:44:35.746Z,933.61
2018-08-12T11:45:35.779Z,933.60
2018-08-12T11:46:35.780Z,933.57
2018-08-12T11:47:35.851Z,933.62
2018-08-12T11:48:36.133Z,933.62
2018-08-12T11:49:35.942Z,933.63
2018-08-12T11:50:35.989Z,933.66
2018-08-12T11:51:36.047Z,933.62
2018-08-12T11:52:36.082Z,933.67
2018-08-12T11:53:36.248Z,933.67
2018-08-12T11:54:36.155Z,933.65
2018-08-12T11:55:36.175Z,933.66
2018-08-12T11:56:36.227Z,933.70
2018-08-12T11:57:36.279Z,933.69
2018-08-12T11:58:36.526Z,933.72
2018-08-12T11:59:36.524Z,933.69
2018-08-12T12:00:36.428Z,933.72
2018-08-12T12:01:36.447Z,933.73
2018-08-12T12:02:36.504Z,933.75
2018-08-12T12:03:36.562Z,933.77
2018-08-12T12:04:36.582Z,933.73
2018-08-12T12:05:36.826Z,933.78
2018-08-12T12:06:36.662Z,933.83
2018-08-12T12:07:36.718Z,933.83
2018-08-12T12:08:36.767Z,933.82
2018-08-12T12:09:36.801Z,933.82
2018-08-12T12:10:36.902Z,933.83
2018-08-12T12:11:36.881Z,933.90
2018-08-12T12:12:36.948Z,933.91
2018-08-12T12:13:36.970Z,933.90
2018-08-12T12:14:37.011Z,933.89
2018-08-12T12:15:37.280Z,933.94
2018-08-12T12:16:37.159Z,933.94
2018-08-12T12:17:37.136Z,933.95
2018-08-12T12:18:37.198Z,933.92
2018-08-12T12:19:37.228Z,933.91
2018-08-12T12:20:37.313Z,933.94
2018-08-12T12:21:37.550Z,933.95
2018-08-12T12:22:37.362Z,933.99
2018-08-12T12:23:37.423Z,933.97
2018-08-12T12:24:37.495Z,934.01
2018-08-12T12:25:37.513Z,934.01
2018-08-12T12:26:37.560Z,934.07
2018-08-12T12:27:37.750Z,934.04
2018-08-12T12:28:37.609Z,934.04